Time;durP1;ratioP1;P1;durP2;ratioP2;P2;SDS_P1;SDS_P2;PMS_P1;PMS_P2;Temp;Humidity;BMP_temperature;BMP_pressure;BME280_temperature;BME280_humidity;BME280_pressure;Samples;Min_cycle;Max_cycle;Signal;HPM_P1;HPM_P2
2022/12/02 00:00:20;;;;;;;56.40;20.77;;;3.80;99.90;;;;;;6156964;23;20025;-78
2022/12/02 00:02:46;;;;;;;44.38;19.08;;;3.80;99.90;;;;;;6156897;23;20029;-77
2022/12/02 00:05:14;;;;;;;45.30;18.98;;;3.80;99.90;;;;;;6130438;23;20088;-78
2022/12/02 00:07:44;;;;;;;49.80;20.15;;;3.80;99.90;;;;;;6130539;23;20025;-78
2022/12/02 00:10:30;;;;;;;45.13;18.42;;;3.80;99.90;;;;;;6130513;23;20053;-78
2022/12/02 00:13:22;;;;;;;55.92;21.65;;;3.80;99.90;;;;;;6156778;23;20021;-78
2022/12/02 00:15:59;;;;;;;51.00;20.88;;;3.80;99.90;;;;;;6156626;23;20014;-78
2022/12/02 00:18:26;;;;;;;55.17;19.98;;;3.80;99.90;;;;;;6156623;23;20025;-78
2022/12/02 00:20:52;;;;;;;54.13;22.58;;;3.80;99.90;;;;;;6156452;23;20101;-78
2022/12/02 00:23:18;;;;;;;54.10;22.67;;;3.80;99.90;;;;;;6156423;23;20333;-78
2022/12/02 00:25:49;;;;;;;56.53;20.85;;;3.70;99.90;;;;;;6156719;23;20033;-78
2022/12/02 00:28:15;;;;;;;50.33;20.35;;;3.70;99.90;;;;;;6156621;23;20032;-78
2022/12/02 00:30:41;;;;;;;56.97;21.92;;;3.70;99.90;;;;;;6156721;23;20013;-78
2022/12/02 00:33:07;;;;;;;50.35;21.15;;;3.70;99.90;;;;;;6130123;23;20028;-78
2022/12/02 00:35:32;;;;;;;56.40;22.27;;;3.60;99.90;;;;;;6130275;23;20334;-78
2022/12/02 00:37:58;;;;;;;56.58;21.83;;;3.60;99.90;;;;;;6156712;23;20044;-78
2022/12/02 00:40:24;;;;;;;53.25;20.25;;;3.60;99.90;;;;;;6156674;23;20013;-78
2022/12/02 00:42:49;;;;;;;52.10;22.05;;;3.60;99.90;;;;;;6156598;23;20013;-78
2022/12/02 00:48:00;;;;;;;54.10;21.45;;;3.60;99.90;;;;;;6156713;23;20032;-78
2022/12/02 00:50:27;;;;;;;48.83;21.17;;;3.60;99.90;;;;;;6156480;23;20048;-78
2022/12/02 00:52:52;;;;;;;47.15;19.60;;;3.50;99.90;;;;;;6156154;23;20024;-78
2022/12/02 00:55:18;;;;;;;43.38;19.58;;;3.50;99.90;;;;;;6129928;23;20017;-78
2022/12/02 00:57:44;;;;;;;54.65;22.10;;;3.60;99.90;;;;;;6156538;23;20013;-78
2022/12/02 01:00:11;;;;;;;48.50;22.73;;;3.60;99.90;;;;;;6130122;23;20022;-78
2022/12/02 01:02:36;;;;;;;53.80;22.15;;;3.50;99.90;;;;;;6156395;23;20021;-78
2022/12/02 01:05:03;;;;;;;49.60;20.77;;;3.60;99.90;;;;;;6130153;23;20032;-78
2022/12/02 01:07:29;;;;;;;49.38;19.95;;;3.50;99.90;;;;;;6130048;23;20018;-78
2022/12/02 01:09:54;;;;;;;48.00;19.58;;;3.50;99.90;;;;;;6156391;23;20029;-77
2022/12/02 01:12:20;;;;;;;61.92;20.20;;;3.50;99.90;;;;;;6156054;23;20378;-77
2022/12/02 01:14:46;;;;;;;48.65;20.98;;;3.50;99.90;;;;;;6156379;23;20104;-77
2022/12/02 01:17:12;;;;;;;57.85;21.77;;;3.50;99.90;;;;;;6155811;23;20045;-77
2022/12/02 01:19:37;;;;;;;54.28;21.38;;;3.50;99.90;;;;;;6156414;23;20025;-77
2022/12/02 01:22:03;;;;;;;50.47;21.92;;;3.60;99.90;;;;;;6156424;23;20021;-78
2022/12/02 01:24:28;;;;;;;55.42;20.80;;;3.60;99.90;;;;;;6156375;23;20021;-78
2022/12/02 01:26:54;;;;;;;43.50;18.95;;;3.40;99.90;;;;;;6156408;23;20017;-78
2022/12/02 01:29:20;;;;;;;55.67;21.90;;;3.50;99.90;;;;;;6129938;23;20017;-77
2022/12/02 01:31:45;;;;;;;45.80;19.83;;;3.50;99.90;;;;;;6156281;23;20025;-78
2022/12/02 01:34:11;;;;;;;49.10;19.67;;;3.40;99.90;;;;;;6156185;23;20025;-77
2022/12/02 01:36:36;;;;;;;52.15;20.23;;;3.50;99.90;;;;;;6156348;23;20014;-78
2022/12/02 01:39:02;;;;;;;46.33;19.70;;;3.50;99.90;;;;;;6156326;23;20438;-77
2022/12/02 01:41:28;;;;;;;47.25;19.10;;;3.40;99.90;;;;;;6156306;23;20331;-77
2022/12/02 01:43:53;;;;;;;47.58;18.92;;;3.40;99.90;;;;;;6156336;23;20393;-77
2022/12/02 01:46:19;;;;;;;48.38;19.80;;;3.40;99.90;;;;;;6156297;23;20018;-78
2022/12/02 01:48:45;;;;;;;42.17;17.08;;;3.40;99.90;;;;;;6156322;23;20013;-77
2022/12/02 01:51:10;;;;;;;40.17;17.98;;;3.40;99.90;;;;;;6156523;23;20547;-77
2022/12/02 01:53:36;;;;;;;44.80;20.52;;;3.30;99.90;;;;;;6155876;23;20021;-78
2022/12/02 01:56:02;;;;;;;40.22;17.58;;;3.40;99.90;;;;;;6156310;23;20018;-77
2022/12/02 01:58:30;;;;;;;42.63;18.42;;;3.40;99.90;;;;;;6158024;23;20013;-78
2022/12/02 02:00:56;;;;;;;39.45;16.65;;;3.40;99.90;;;;;;6158026;23;20017;-77
2022/12/02 02:03:23;;;;;;;37.10;16.98;;;3.30;99.90;;;;;;6156231;23;20389;-77
2022/12/02 02:05:49;;;;;;;37.15;16.17;;;3.40;99.90;;;;;;6131669;23;20056;-78
2022/12/02 02:08:16;;;;;;;34.83;15.65;;;3.30;99.90;;;;;;6157711;23;20021;-78
2022/12/02 02:10:44;;;;;;;36.90;15.90;;;3.40;99.90;;;;;;6157888;23;20013;-78
2022/12/02 02:13:12;;;;;;;38.78;16.33;;;3.40;99.90;;;;;;6157906;23;20021;-78
2022/12/02 02:15:39;;;;;;;38.20;16.63;;;3.30;99.90;;;;;;6131612;23;20022;-78
2022/12/02 02:18:05;;;;;;;37.42;16.58;;;3.30;99.90;;;;;;6157502;23;20521;-78
2022/12/02 02:20:31;;;;;;;36.75;15.88;;;3.40;99.90;;;;;;6157491;23;20506;-78
2022/12/02 02:23:15;;;;;;;36.08;17.35;;;3.40;99.90;;;;;;6131272;23;20021;-78
2022/12/02 02:25:43;;;;;;;;;;;3.30;99.90;;;;;;6157972;23;20450;-78
2022/12/02 02:28:09;;;;;;;34.58;15.20;;;3.30;99.90;;;;;;6131434;23;19952;-78
2022/12/02 02:30:35;;;;;;;34.95;15.80;;;3.30;99.90;;;;;;6157428;23;20024;-78
2022/12/02 02:33:05;;;;;;;38.20;15.40;;;3.30;99.90;;;;;;6131281;23;20147;-77
2022/12/02 02:35:33;;;;;;;35.40;15.45;;;3.30;99.90;;;;;;6131339;23;20044;-78
2022/12/02 02:37:59;;;;;;;39.28;16.70;;;3.30;99.90;;;;;;6131348;23;20450;-78
2022/12/02 02:40:26;;;;;;;38.25;16.80;;;3.30;99.90;;;;;;6131284;23;20084;-78
2022/12/02 02:42:56;;;;;;;38.55;16.58;;;3.30;99.90;;;;;;6157319;23;20446;-78
2022/12/02 02:45:25;;;;;;;36.88;16.40;;;3.30;99.90;;;;;;6157677;23;20028;-78
2022/12/02 02:47:53;;;;;;;42.70;18.63;;;3.30;99.90;;;;;;6157580;23;20014;-78
2022/12/02 02:50:19;;;;;;;42.80;17.52;;;3.20;99.90;;;;;;6131283;23;20022;-78
2022/12/02 02:52:45;;;;;;;44.80;17.52;;;3.20;99.90;;;;;;6158356;23;20018;-78
2022/12/02 02:55:19;;;;;;;41.75;16.67;;;3.20;99.90;;;;;;6157568;23;20029;-78
2022/12/02 02:57:45;;;;;;;39.10;15.88;;;3.20;99.90;;;;;;6157502;23;20065;-78
2022/12/02 03:00:12;;;;;;;40.13;17.17;;;3.20;99.90;;;;;;6157545;23;20013;-78
2022/12/02 03:02:38;;;;;;;42.50;16.83;;;3.20;99.90;;;;;;6157109;23;20013;-78
2022/12/02 03:05:05;;;;;;;41.92;18.00;;;3.20;99.90;;;;;;6157463;23;20054;-78
2022/12/02 03:07:32;;;;;;;39.78;16.50;;;3.20;99.90;;;;;;6157095;23;20533;-78
2022/12/02 03:09:58;;;;;;;40.20;17.02;;;3.20;99.90;;;;;;6157458;23;20047;-78
2022/12/02 03:12:24;;;;;;;35.47;15.77;;;3.20;99.90;;;;;;6157076;23;20025;-78
2022/12/02 03:14:50;;;;;;;38.35;16.88;;;3.20;99.90;;;;;;6157442;23;20017;-78
2022/12/02 03:17:15;;;;;;;45.45;18.00;;;3.20;99.90;;;;;;6157308;23;20119;-78
2022/12/02 03:19:42;;;;;;;37.97;17.00;;;3.20;99.90;;;;;;6130885;23;20072;-78
2022/12/02 03:22:09;;;;;;;44.88;18.33;;;3.20;99.90;;;;;;6156999;23;20460;-78
2022/12/02 03:24:36;;;;;;;41.45;18.05;;;3.20;99.90;;;;;;6157201;23;20032;-78
2022/12/02 03:27:03;;;;;;;43.45;18.02;;;3.20;99.90;;;;;;6130794;23;20316;-78
2022/12/02 03:29:29;;;;;;;40.03;17.65;;;3.20;99.90;;;;;;6157218;23;20017;-78
2022/12/02 03:31:57;;;;;;;48.33;18.27;;;3.20;99.90;;;;;;6157131;23;20017;-78
2022/12/02 03:34:22;;;;;;;47.20;18.05;;;3.20;99.90;;;;;;6157179;23;20018;-78
2022/12/02 03:36:48;;;;;;;44.15;17.65;;;3.20;99.90;;;;;;6157103;23;20461;-78
2022/12/02 03:39:14;;;;;;;48.28;19.55;;;3.20;99.90;;;;;;6157211;23;20013;-78
2022/12/02 03:41:40;;;;;;;46.42;18.98;;;3.20;99.90;;;;;;6157808;23;20076;-78
2022/12/02 03:44:06;;;;;;;43.92;18.73;;;3.20;99.90;;;;;;6130589;23;20024;-78
2022/12/02 03:46:32;;;;;;;43.92;16.98;;;3.20;99.90;;;;;;6157465;23;20069;-78
2022/12/02 03:48:59;;;;;;;48.10;18.55;;;3.30;99.90;;;;;;6156655;23;20020;-78
2022/12/02 03:51:26;;;;;;;41.85;18.23;;;3.20;99.90;;;;;;6130561;23;20022;-78
2022/12/02 03:53:52;;;;;;;43.40;18.20;;;3.20;99.90;;;;;;6156782;23;20028;-78
2022/12/02 03:56:17;;;;;;;47.78;18.92;;;3.20;99.90;;;;;;6156677;23;20021;-78
2022/12/02 03:58:51;;;;;;;42.50;18.10;;;3.20;99.90;;;;;;6157329;23;20052;-78
2022/12/02 04:01:17;;;;;;;41.33;17.45;;;3.20;99.90;;;;;;6157021;23;20018;-78
2022/12/02 04:03:43;;;;;;;49.75;20.77;;;3.20;99.90;;;;;;6156538;23;20068;-78
2022/12/02 04:06:09;;;;;;;49.90;19.00;;;3.20;99.90;;;;;;6156960;23;20017;-78
2022/12/02 04:08:36;;;;;;;44.63;18.17;;;3.20;99.90;;;;;;6156877;23;20088;-78
2022/12/02 04:11:02;;;;;;;48.65;19.20;;;3.30;99.90;;;;;;6130474;23;20025;-78
2022/12/02 04:13:27;;;;;;;43.05;17.95;;;3.20;99.90;;;;;;6156267;23;20025;-78
2022/12/02 04:15:53;;;;;;;46.03;18.70;;;3.30;99.90;;;;;;6130311;23;20060;-78
2022/12/02 04:18:19;;;;;;;43.22;16.92;;;3.20;99.90;;;;;;6156840;23;20033;-78
2022/12/02 04:20:44;;;;;;;45.60;17.20;;;3.30;99.90;;;;;;6130048;23;20018;-78
2022/12/02 04:23:10;;;;;;;44.33;17.50;;;3.20;99.90;;;;;;6130447;23;20430;-78
2022/12/02 04:25:36;;;;;;;42.47;16.55;;;3.20;99.90;;;;;;6130383;23;20043;-78
2022/12/02 04:28:02;;;;;;;45.92;17.02;;;3.30;99.90;;;;;;6156756;23;20075;-78
2022/12/02 04:30:27;;;;;;;47.55;19.27;;;3.30;99.90;;;;;;6130363;23;20018;-78
2022/12/02 04:32:53;;;;;;;45.35;18.45;;;3.30;99.90;;;;;;6130159;23;20083;-78
2022/12/02 04:35:19;;;;;;;43.03;18.23;;;3.30;99.90;;;;;;6130307;23;20017;-78
2022/12/02 04:37:44;;;;;;;41.25;16.40;;;3.30;99.90;;;;;;6130285;23;20025;-78
2022/12/02 04:40:11;;;;;;;43.25;18.00;;;3.30;99.90;;;;;;6156246;23;20021;-78
2022/12/02 04:42:37;;;;;;;44.90;16.92;;;3.30;99.90;;;;;;6130230;23;20437;-78
2022/12/02 04:45:03;;;;;;;44.63;16.98;;;3.40;99.90;;;;;;6156762;23;20067;-77
2022/12/02 04:47:30;;;;;;;43.25;17.92;;;3.30;99.90;;;;;;6156258;23;20028;-77
2022/12/02 04:49:55;;;;;;;41.88;16.75;;;3.30;99.90;;;;;;6156273;23;20092;-77
2022/12/02 04:52:21;;;;;;;42.47;16.80;;;3.30;99.90;;;;;;6130023;23;20382;-77
2022/12/02 04:54:46;;;;;;;45.92;16.60;;;3.20;99.90;;;;;;6156314;23;20092;-77
2022/12/02 04:57:12;;;;;;;46.38;18.92;;;3.30;99.90;;;;;;6156526;23;20084;-77
2022/12/02 04:59:38;;;;;;;35.42;15.82;;;3.20;99.90;;;;;;6156446;23;20036;-77
2022/12/02 05:02:03;;;;;;;39.22;16.90;;;3.20;99.90;;;;;;6156246;23;20338;-77
2022/12/02 05:04:29;;;;;;;42.33;17.13;;;3.20;99.90;;;;;;6129960;23;20032;-77
2022/12/02 05:06:55;;;;;;;42.22;17.73;;;3.20;99.90;;;;;;6130064;23;20013;-77
2022/12/02 05:09:20;;;;;;;37.90;17.00;;;3.20;99.90;;;;;;6156030;23;20009;-77
2022/12/02 05:11:46;;;;;;;49.42;17.83;;;3.20;99.90;;;;;;6156413;23;20446;-77
2022/12/02 05:14:11;;;;;;;41.13;16.65;;;3.20;99.90;;;;;;6155982;23;20092;-77
2022/12/02 05:16:37;;;;;;;43.03;17.52;;;3.10;99.90;;;;;;6156051;23;20016;-77
2022/12/02 05:19:03;;;;;;;45.75;17.50;;;3.10;99.90;;;;;;6130011;23;20100;-77
2022/12/02 05:21:28;;;;;;;43.72;17.13;;;3.20;99.90;;;;;;6130039;23;20443;-77
2022/12/02 05:23:54;;;;;;;43.20;16.80;;;3.10;99.90;;;;;;6130006;23;20017;-77
2022/12/02 05:26:19;;;;;;;41.63;16.05;;;3.10;99.90;;;;;;6156401;23;20017;-77
2022/12/02 05:28:45;;;;;;;42.72;16.48;;;3.10;99.90;;;;;;6156427;23;20020;-77
2022/12/02 05:31:11;;;;;;;54.67;20.05;;;3.10;99.90;;;;;;6129937;23;20088;-78
2022/12/02 05:33:36;;;;;;;47.53;17.55;;;3.10;99.90;;;;;;6131796;23;20024;-78
2022/12/02 05:36:02;;;;;;;44.83;18.77;;;3.00;99.90;;;;;;6158252;23;20109;-77
2022/12/02 05:38:28;;;;;;;50.35;17.42;;;3.10;99.90;;;;;;6131771;23;20443;-77
2022/12/02 05:40:55;;;;;;;53.00;18.42;;;3.00;99.90;;;;;;6158253;23;20080;-77
2022/12/02 05:43:23;;;;;;;52.10;20.05;;;3.00;99.90;;;;;;6158242;23;20013;-77
2022/12/02 05:45:50;;;;;;;51.70;19.20;;;3.00;99.90;;;;;;6158317;23;20017;-77
2022/12/02 05:48:18;;;;;;;53.97;19.95;;;3.00;99.90;;;;;;6158275;23;20014;-77
2022/12/02 05:50:45;;;;;;;47.38;19.15;;;3.00;99.90;;;;;;6158078;23;20047;-77
2022/12/02 05:53:28;;;;;;;48.33;18.35;;;3.00;99.90;;;;;;6158055;23;20088;-77
2022/12/02 05:55:55;;;;;;;55.10;20.00;;;3.00;99.90;;;;;;6157842;23;20449;-77
2022/12/02 05:58:22;;;;;;;54.58;21.58;;;3.00;99.90;;;;;;6158092;23;20072;-78
2022/12/02 06:00:55;;;;;;;49.47;18.70;;;2.90;99.90;;;;;;6157566;23;20481;-77
2022/12/02 06:03:21;;;;;;;46.95;18.77;;;3.00;99.90;;;;;;6157673;23;20454;-78
2022/12/02 06:05:48;;;;;;;50.53;18.92;;;2.90;99.90;;;;;;6157729;23;20032;-78
2022/12/02 06:08:26;;;;;;;53.05;18.20;;;3.00;99.90;;;;;;6158737;23;20027;-78
2022/12/02 06:11:15;;;;;;;56.53;20.73;;;2.90;99.90;;;;;;6157870;23;20009;-78
2022/12/02 06:13:42;;;;;;;45.78;17.08;;;3.00;99.90;;;;;;6145676;23;20022;-81
2022/12/02 06:16:21;;;;;;;45.53;18.73;;;3.00;99.90;;;;;;6156498;23;20077;-77
2022/12/02 06:18:46;;;;;;;52.60;19.08;;;3.00;99.90;;;;;;6156654;23;20040;-78
2022/12/02 06:21:17;;;;;;;57.22;20.40;;;3.00;99.90;;;;;;6157576;23;20005;-78
2022/12/02 06:23:52;;;;;;;57.33;20.00;;;3.00;99.90;;;;;;6157957;23;20081;-78
2022/12/02 06:26:19;;;;;;;49.50;19.63;;;3.10;99.90;;;;;;6157827;23;20035;-78
2022/12/02 06:28:48;;;;;;;47.42;19.30;;;3.00;99.90;;;;;;6130376;23;20017;-77
2022/12/02 06:31:20;;;;;;;48.75;19.25;;;3.10;99.90;;;;;;6157440;23;20017;-77
2022/12/02 06:33:49;;;;;;;55.10;19.27;;;3.10;99.90;;;;;;6131066;23;20417;-78
2022/12/02 06:36:18;;;;;;;47.63;20.75;;;3.20;99.90;;;;;;6157492;23;20025;-79
2022/12/02 06:38:55;;;;;;;45.47;16.55;;;3.30;99.90;;;;;;6130999;23;20028;-79
2022/12/02 06:41:26;;;;;;;37.20;12.93;;;3.40;99.90;;;;;;6156970;23;20465;-78
2022/12/02 06:47:31;;;;;;;31.88;13.15;;;3.70;99.90;;;;;;6095607;23;20034;-77
2022/12/02 06:50:03;;;;;;;26.77;11.65;;;3.90;99.90;;;;;;6153299;23;20446;-78
2022/12/02 06:52:41;;;;;;;34.92;14.20;;;4.00;99.90;;;;;;6157362;23;20020;-78
2022/12/02 06:55:24;;;;;;;28.52;12.10;;;4.10;99.90;;;;;;6157096;23;20590;-78
2022/12/02 06:57:51;;;;;;;31.85;13.00;;;4.20;99.90;;;;;;6130640;23;20024;-77
2022/12/02 07:00:17;;;;;;;28.77;11.82;;;4.20;99.90;;;;;;6156669;23;20022;-78
2022/12/02 07:02:43;;;;;;;32.53;11.98;;;4.30;99.90;;;;;;6157043;23;20088;-78
2022/12/02 07:05:16;;;;;;;26.80;10.52;;;4.30;99.90;;;;;;6130794;23;20388;-78
2022/12/02 07:07:41;;;;;;;26.45;10.40;;;4.30;99.90;;;;;;6157250;23;20072;-78
2022/12/02 07:10:19;;;;;;;23.88;9.70;;;4.30;99.90;;;;;;6156836;23;20434;-78
2022/12/02 07:12:45;;;;;;;24.00;10.70;;;4.40;99.90;;;;;;6130728;23;20025;-78
2022/12/02 07:15:15;;;;;;;21.20;8.75;;;4.50;99.90;;;;;;6156681;23;20140;-78
2022/12/02 07:17:43;;;;;;;24.85;9.38;;;4.50;99.90;;;;;;6156663;23;20013;-78
2022/12/02 07:20:27;;;;;;;26.90;11.82;;;4.50;99.90;;;;;;6157103;23;20045;-78
2022/12/02 07:23:04;;;;;;;24.38;9.60;;;4.40;99.90;;;;;;6157227;23;20036;-78
2022/12/02 07:25:37;;;;;;;23.67;10.13;;;4.40;99.90;;;;;;6157143;23;20024;-78
2022/12/02 07:28:21;;;;;;;30.27;12.40;;;4.40;99.90;;;;;;6130267;23;20014;-78
2022/12/02 07:31:26;;;;;;;34.30;12.27;;;4.40;99.90;;;;;;6129919;23;20032;-78
2022/12/02 07:33:52;;;;;;;27.00;12.40;;;4.40;99.90;;;;;;6126538;23;20508;-78
2022/12/02 07:36:18;;;;;;;31.88;11.63;;;4.40;99.90;;;;;;6130788;23;20017;-78
2022/12/02 07:38:44;;;;;;;28.10;12.13;;;4.40;99.90;;;;;;6130673;23;20080;-78
2022/12/02 07:41:10;;;;;;;27.95;12.18;;;4.40;99.90;;;;;;6156878;23;20025;-78
2022/12/02 07:43:36;;;;;;;30.38;11.48;;;4.40;99.90;;;;;;6156999;23;20024;-78
2022/12/02 07:46:02;;;;;;;35.00;12.35;;;4.40;99.90;;;;;;6156634;23;20346;-78
2022/12/02 07:48:27;;;;;;;36.95;15.20;;;4.50;99.90;;;;;;6155545;23;20024;-78
2022/12/02 07:50:53;;;;;;;39.05;16.13;;;4.50;99.90;;;;;;6156553;23;20401;-78
2022/12/02 07:53:19;;;;;;;43.17;16.85;;;4.40;99.90;;;;;;6156552;23;20032;-78
2022/12/02 07:55:44;;;;;;;37.50;15.60;;;4.40;99.90;;;;;;6156559;23;20045;-78
2022/12/02 07:58:10;;;;;;;38.53;14.93;;;4.40;99.90;;;;;;6156824;23;20014;-78
2022/12/02 08:00:35;;;;;;;33.53;14.70;;;4.40;99.90;;;;;;6156485;23;20018;-78
2022/12/02 08:03:01;;;;;;;35.47;12.50;;;4.30;99.90;;;;;;6156884;23;20097;-78
2022/12/02 08:05:27;;;;;;;30.10;12.25;;;4.40;99.90;;;;;;6156503;23;20021;-77
2022/12/02 08:07:53;;;;;;;30.88;12.43;;;4.40;99.90;;;;;;6156872;23;20457;-78
2022/12/02 08:10:19;;;;;;;28.55;10.35;;;4.40;99.90;;;;;;6130456;23;20025;-78
2022/12/02 08:12:45;;;;;;;29.25;10.90;;;4.40;99.90;;;;;;6156443;23;20076;-78
2022/12/02 08:15:12;;;;;;;28.92;12.07;;;4.30;99.90;;;;;;6156493;23;20021;-77
2022/12/02 08:17:38;;;;;;;33.75;13.60;;;4.30;99.90;;;;;;6156182;23;20017;-77
2022/12/02 08:20:05;;;;;;;43.97;16.08;;;4.30;99.90;;;;;;6156776;23;20056;-77
2022/12/02 08:22:31;;;;;;;43.38;16.60;;;4.30;99.90;;;;;;6156621;23;20014;-77
2022/12/02 08:24:57;;;;;;;44.15;18.70;;;4.20;99.90;;;;;;6157355;23;20024;-78
2022/12/02 08:27:23;;;;;;;50.92;20.02;;;4.10;99.90;;;;;;6156491;23;20014;-78
2022/12/02 08:29:49;;;;;;;43.47;16.95;;;4.00;99.90;;;;;;6156298;23;20510;-78
2022/12/02 08:32:16;;;;;;;48.50;18.58;;;4.00;99.90;;;;;;6156543;23;20040;-78
2022/12/02 08:34:41;;;;;;;43.17;17.10;;;3.90;99.90;;;;;;6156584;23;20152;-78
2022/12/02 08:37:07;;;;;;;40.08;16.98;;;4.00;99.90;;;;;;6156237;23;20049;-78
2022/12/02 08:39:33;;;;;;;46.50;19.80;;;4.00;99.90;;;;;;6156242;23;20025;-79
2022/12/02 08:41:59;;;;;;;45.85;20.63;;;3.90;99.90;;;;;;6130054;23;20014;-79
2022/12/02 08:44:25;;;;;;;39.38;17.38;;;3.70;99.90;;;;;;6156192;23;20022;-79
2022/12/02 08:46:50;;;;;;;42.85;18.75;;;3.80;99.90;;;;;;6156518;23;20017;-78
2022/12/02 08:49:16;;;;;;;41.50;17.20;;;3.70;99.90;;;;;;6155363;23;20030;-79
2022/12/02 08:51:42;;;;;;;38.88;15.23;;;3.70;99.90;;;;;;6128695;23;20063;-79
2022/12/02 08:54:08;;;;;;;35.00;15.73;;;3.70;99.90;;;;;;6155120;23;20040;-79
2022/12/02 08:56:33;;;;;;;38.45;16.60;;;3.70;99.90;;;;;;6154692;23;20021;-78
2022/12/02 08:58:59;;;;;;;32.35;14.77;;;3.50;99.90;;;;;;6128588;23;20072;-79
2022/12/02 09:01:25;;;;;;;31.10;13.45;;;3.40;99.90;;;;;;6154633;23;20057;-78
2022/12/02 09:03:51;;;;;;;29.42;13.00;;;3.30;99.90;;;;;;6155044;23;20018;-79
2022/12/02 09:06:16;;;;;;;26.05;11.10;;;3.20;99.90;;;;;;6154613;23;20112;-79
2022/12/02 09:08:42;;;;;;;29.40;10.35;;;3.20;99.90;;;;;;6155047;23;20025;-79
2022/12/02 09:11:07;;;;;;;28.52;12.35;;;3.20;99.90;;;;;;6156150;23;20018;-79
2022/12/02 09:13:33;;;;;;;27.20;11.40;;;3.20;99.90;;;;;;6129160;23;20026;-78
2022/12/02 09:15:59;;;;;;;25.02;9.80;;;3.00;99.90;;;;;;6155460;23;20101;-79
2022/12/02 09:18:25;;;;;;;17.45;7.13;;;3.00;99.90;;;;;;6155974;23;20048;-79
2022/12/02 09:20:50;;;;;;;23.38;9.05;;;2.90;99.90;;;;;;6156349;23;20018;-79
2022/12/02 09:23:16;;;;;;;24.33;10.32;;;2.90;99.90;;;;;;6129735;23;20021;-78
2022/12/02 09:25:41;;;;;;;22.42;10.88;;;2.90;99.90;;;;;;6156172;23;20014;-79
2022/12/02 09:28:07;;;;;;;26.10;10.80;;;2.90;99.90;;;;;;6155631;23;20025;-78
2022/12/02 09:30:33;;;;;;;23.50;11.00;;;2.90;99.90;;;;;;6156062;23;20013;-78
2022/12/02 09:32:58;;;;;;;28.38;12.70;;;2.80;99.90;;;;;;6129654;23;20029;-78
2022/12/02 09:35:24;;;;;;;28.58;11.63;;;2.80;99.90;;;;;;6155707;23;20018;-78
2022/12/02 09:37:49;;;;;;;26.60;12.25;;;2.80;99.90;;;;;;6155940;23;20021;-79
2022/12/02 09:40:15;;;;;;;27.08;12.65;;;2.80;99.90;;;;;;6155980;23;20018;-79
2022/12/02 09:42:41;;;;;;;28.85;13.05;;;2.80;99.90;;;;;;6155594;23;20021;-78
2022/12/02 09:45:07;;;;;;;32.67;13.43;;;2.80;99.90;;;;;;6154689;23;20009;-79
2022/12/02 09:47:34;;;;;;;29.20;13.15;;;2.90;99.90;;;;;;6154567;23;20774;-78
2022/12/02 09:49:59;;;;;;;32.53;14.23;;;2.90;99.90;;;;;;6154352;23;20468;-78
2022/12/02 09:52:26;;;;;;;28.40;12.75;;;2.90;99.90;;;;;;6154662;23;20100;-79
2022/12/02 09:54:54;;;;;;;29.40;13.15;;;2.90;99.90;;;;;;6154632;23;20028;-79
2022/12/02 09:57:27;;;;;;;29.58;12.70;;;2.90;99.90;;;;;;6154387;23;20442;-79
2022/12/02 09:59:53;;;;;;;29.38;11.70;;;2.90;99.90;;;;;;6128376;23;20100;-79
2022/12/02 10:02:41;;;;;;;30.70;15.27;;;2.90;99.90;;;;;;6154704;23;20013;-79
2022/12/02 10:05:12;;;;;;;33.53;14.38;;;3.00;99.90;;;;;;6154725;23;20077;-79
2022/12/02 10:07:37;;;;;;;32.00;14.68;;;3.10;99.90;;;;;;6156076;23;20022;-79
2022/12/02 10:10:04;;;;;;;34.13;13.85;;;3.20;99.90;;;;;;6129702;23;20394;-79
2022/12/02 10:12:30;;;;;;;31.38;14.48;;;3.20;99.90;;;;;;6155584;23;20017;-78
2022/12/02 10:14:57;;;;;;;32.35;13.45;;;3.20;99.90;;;;;;6155617;23;20059;-78
2022/12/02 10:17:23;;;;;;;33.05;15.23;;;3.20;99.90;;;;;;6155758;23;20041;-79
2022/12/02 10:19:50;;;;;;;39.97;17.25;;;3.20;99.90;;;;;;6157813;23;20018;-79
2022/12/02 10:22:18;;;;;;;35.92;15.98;;;3.30;99.90;;;;;;6157808;23;20014;-79
2022/12/02 10:24:45;;;;;;;36.17;17.15;;;3.30;99.90;;;;;;6157824;23;20024;-79
2022/12/02 10:27:43;;;;;;;36.10;16.80;;;3.30;99.90;;;;;;6157420;23;20093;-79
2022/12/02 10:30:17;;;;;;;34.38;15.75;;;3.20;99.90;;;;;;6107941;23;20024;-79
2022/12/02 10:33:01;;;;;;;37.58;18.35;;;3.30;99.90;;;;;;6157281;23;20492;-79
2022/12/02 10:35:41;;;;;;;37.58;16.48;;;3.30;99.90;;;;;;6157695;23;20084;-79
2022/12/02 10:38:34;;;;;;;39.08;16.30;;;3.30;99.90;;;;;;6157556;23;20080;-79
2022/12/02 10:41:17;;;;;;;35.13;16.80;;;3.30;99.90;;;;;;6157252;23;20308;-79
2022/12/02 10:44:00;;;;;;;36.33;16.80;;;3.20;99.90;;;;;;6157403;23;20098;-79
2022/12/02 10:46:26;;;;;;;44.47;20.55;;;3.30;99.90;;;;;;6157367;23;20438;-79
2022/12/02 10:48:51;;;;;;;43.97;19.73;;;3.30;99.90;;;;;;6157304;23;20021;-79
2022/12/02 10:51:19;;;;;;;41.58;19.85;;;3.40;99.90;;;;;;6157535;23;20017;-79
2022/12/02 10:53:49;;;;;;;44.72;19.33;;;3.50;99.90;;;;;;6131091;23;20021;-79
2022/12/02 10:56:19;;;;;;;43.78;19.30;;;3.40;99.90;;;;;;6157346;23;20072;-79
2022/12/02 10:58:49;;;;;;;43.10;19.55;;;3.30;99.90;;;;;;6131152;23;20017;-78
2022/12/02 11:01:17;;;;;;;42.05;20.08;;;3.30;99.90;;;;;;6131078;23;20342;-77
2022/12/02 11:03:42;;;;;;;40.90;20.55;;;3.30;99.90;;;;;;6157492;23;20017;-78
2022/12/02 11:06:19;;;;;;;39.75;19.70;;;3.30;99.90;;;;;;6131066;23;20017;-77
2022/12/02 11:08:46;;;;;;;39.88;19.02;;;3.40;99.90;;;;;;6157318;23;20018;-77
2022/12/02 11:11:16;;;;;;;44.65;19.38;;;3.40;99.90;;;;;;6157364;23;20017;-78
2022/12/02 11:14:00;;;;;;;38.40;17.92;;;3.60;99.90;;;;;;6157192;23;20028;-77
2022/12/02 11:16:26;;;;;;;46.30;21.10;;;3.70;99.90;;;;;;6130368;23;20018;-77
2022/12/02 11:19:03;;;;;;;39.90;20.52;;;3.90;99.90;;;;;;6130776;23;20108;-77
2022/12/02 11:21:29;;;;;;;42.30;20.33;;;3.70;99.90;;;;;;6130962;23;20045;-77
2022/12/02 11:24:22;;;;;;;40.17;18.10;;;3.70;99.90;;;;;;6157145;23;20021;-77
2022/12/02 11:27:03;;;;;;;42.10;18.98;;;3.70;99.90;;;;;;6156942;23;20025;-77
2022/12/02 11:29:29;;;;;;;37.90;18.95;;;3.70;99.90;;;;;;6130170;23;20013;-77
2022/12/02 11:32:18;;;;;;;39.88;19.90;;;3.70;99.90;;;;;;6157154;23;20028;-77
2022/12/02 11:34:52;;;;;;;39.30;18.40;;;3.70;99.90;;;;;;6157084;23;20017;-78
2022/12/02 11:37:39;;;;;;;37.17;16.75;;;3.70;99.90;;;;;;6157076;23;20056;-77
2022/12/02 11:40:25;;;;;;;33.55;14.98;;;3.80;99.90;;;;;;6157028;23;20067;-79
2022/12/02 11:42:51;;;;;;;33.10;14.90;;;3.80;99.90;;;;;;6130148;23;20145;-79
2022/12/02 11:45:17;;;;;;;36.90;16.73;;;3.80;99.90;;;;;;6156472;23;20116;-79
2022/12/02 11:47:58;;;;;;;39.05;17.10;;;3.70;99.90;;;;;;6154612;23;20014;-79
2022/12/02 11:50:49;;;;;;;36.50;16.13;;;3.80;99.90;;;;;;6128404;23;20021;-80
2022/12/02 11:53:18;;;;;;;42.60;18.70;;;3.80;99.90;;;;;;6125460;23;20449;-80
2022/12/02 11:55:52;;;;;;;36.08;15.90;;;3.80;99.90;;;;;;6156551;23;20104;-80
2022/12/02 11:58:31;;;;;;;36.63;17.08;;;3.90;99.90;;;;;;6129139;23;20442;-79
2022/12/02 12:01:02;;;;;;;31.30;15.27;;;3.90;99.90;;;;;;6156899;23;20064;-80
2022/12/02 12:03:28;;;;;;;38.90;17.30;;;3.90;99.90;;;;;;6156465;23;20025;-78
2022/12/02 12:06:15;;;;;;;36.55;16.65;;;3.70;99.90;;;;;;6156291;23;20018;-78
2022/12/02 12:09:09;;;;;;;34.15;15.40;;;3.90;99.90;;;;;;6156280;23;20497;-79
2022/12/02 12:11:36;;;;;;;34.50;15.93;;;3.80;99.90;;;;;;6156677;23;20072;-78
2022/12/02 12:14:06;;;;;;;30.10;15.38;;;3.80;99.90;;;;;;6156091;23;20441;-79
2022/12/02 12:16:34;;;;;;;34.95;16.05;;;3.80;99.90;;;;;;6129847;23;20014;-78
2022/12/02 12:19:20;;;;;;;33.22;15.48;;;3.90;99.90;;;;;;6156530;23;20022;-79
2022/12/02 12:21:47;;;;;;;30.17;14.35;;;3.80;99.90;;;;;;6129331;23;20024;-79
2022/12/02 12:24:16;;;;;;;28.60;13.02;;;3.80;99.90;;;;;;6156528;23;20020;-79
2022/12/02 12:27:01;;;;;;;28.98;13.57;;;3.80;99.90;;;;;;6156575;23;20022;-79
2022/12/02 12:29:30;;;;;;;29.70;12.05;;;3.90;99.90;;;;;;6145200;23;20017;-78
2022/12/02 12:31:56;;;;;;;30.65;13.52;;;4.00;99.90;;;;;;6129949;23;20354;-79
2022/12/02 12:34:22;;;;;;;29.55;14.43;;;4.10;99.90;;;;;;6156277;23;20013;-79
2022/12/02 12:36:47;;;;;;;25.25;12.40;;;4.10;99.90;;;;;;6155952;23;20145;-78
2022/12/02 12:39:14;;;;;;;29.48;13.35;;;4.10;99.90;;;;;;6130073;23;20022;-78
2022/12/02 12:41:40;;;;;;;26.30;12.07;;;4.00;99.90;;;;;;6129837;23;20028;-79
2022/12/02 12:44:06;;;;;;;28.90;13.82;;;3.90;99.90;;;;;;6156185;23;20100;-79
2022/12/02 12:46:31;;;;;;;26.63;12.98;;;4.00;99.90;;;;;;6156202;23;20025;-78
2022/12/02 12:48:57;;;;;;;26.52;11.35;;;3.90;99.90;;;;;;6156139;23;20028;-78
2022/12/02 12:51:23;;;;;;;31.73;13.77;;;4.00;99.90;;;;;;6156445;23;20093;-79